createdAt,value
2019-02-26T00:01:07.599Z,3.80
2019-02-26T00:03:37.202Z,4.00
2019-02-26T00:06:06.845Z,4.10
2019-02-26T00:08:36.466Z,4.10
2019-02-26T00:11:08.007Z,4.00
2019-02-26T00:13:37.374Z,4.20
2019-02-26T00:16:08.007Z,4.20
2019-02-26T00:18:38.268Z,4.10
2019-02-26T00:21:07.908Z,3.90
2019-02-26T00:23:37.745Z,3.70
2019-02-26T00:26:10.460Z,3.80
2019-02-26T00:28:39.098Z,3.60
2019-02-26T00:31:09.952Z,3.60
2019-02-26T00:33:40.521Z,3.40
2019-02-26T00:36:11.223Z,3.10
2019-02-26T00:38:42.786Z,3.30
2019-02-26T00:41:12.680Z,3.40
2019-02-26T00:43:42.389Z,3.50
2019-02-26T00:46:12.039Z,3.70
2019-02-26T00:48:43.133Z,3.70
2019-02-26T00:51:12.898Z,3.70
2019-02-26T00:53:42.550Z,3.20
2019-02-26T00:56:12.198Z,3.00
2019-02-26T00:58:44.019Z,3.20
2019-02-26T01:01:15.292Z,3.00
2019-02-26T01:03:45.249Z,2.70
2019-02-26T01:06:15.608Z,3.00
2019-02-26T01:08:47.091Z,3.30
2019-02-26T01:11:16.585Z,3.30
2019-02-26T01:13:46.294Z,3.20
2019-02-26T01:16:15.929Z,3.50
2019-02-26T01:18:47.241Z,2.70
2019-02-26T01:21:16.838Z,2.70
2019-02-26T01:23:46.937Z,2.90
2019-02-26T01:26:16.585Z,3.10
2019-02-26T01:28:48.405Z,3.30
2019-02-26T01:31:19.807Z,3.00
2019-02-26T01:33:50.725Z,3.30
2019-02-26T01:36:21.485Z,3.40
2019-02-26T01:38:53.037Z,3.30
2019-02-26T01:41:24.526Z,3.20
2019-02-26T01:43:53.997Z,3.00
2019-02-26T01:46:23.647Z,3.20
2019-02-26T01:48:55.053Z,3.00
2019-02-26T01:51:26.143Z,3.20
2019-02-26T01:53:55.805Z,3.50
2019-02-26T01:56:25.477Z,3.30
2019-02-26T01:58:56.838Z,2.80
2019-02-26T02:01:26.337Z,2.80
2019-02-26T02:03:56.394Z,2.60
2019-02-26T02:06:26.194Z,2.80
2019-02-26T02:08:55.865Z,2.70
2019-02-26T02:11:28.344Z,2.50
2019-02-26T02:13:56.733Z,2.40
2019-02-26T02:16:28.631Z,2.70
2019-02-26T02:18:58.296Z,2.90
2019-02-26T02:21:31.101Z,3.00
2019-02-26T02:24:00.418Z,2.80
2019-02-26T02:26:30.115Z,2.80
2019-02-26T02:28:59.749Z,2.80
2019-02-26T02:31:31.399Z,2.60
2019-02-26T02:34:00.637Z,2.30
2019-02-26T02:36:30.278Z,2.40
2019-02-26T02:38:59.917Z,2.80
2019-02-26T02:41:29.538Z,2.60
2019-02-26T02:43:59.186Z,2.60
2019-02-26T02:46:28.809Z,2.60
2019-02-26T02:48:58.467Z,2.80
2019-02-26T02:51:30.690Z,2.90
2019-02-26T02:53:59.427Z,2.30
2019-02-26T02:56:30.769Z,2.50
2019-02-26T02:59:00.282Z,2.60
2019-02-26T03:01:29.904Z,2.20
2019-02-26T03:04:01.142Z,2.70
2019-02-26T03:06:32.599Z,3.10
2019-02-26T03:09:02.178Z,3.10
2019-02-26T03:11:35.938Z,3.10
2019-02-26T03:14:05.670Z,3.20
2019-02-26T03:16:34.356Z,3.00
2019-02-26T03:19:04.761Z,2.70
2019-02-26T03:21:35.320Z,2.80
2019-02-26T03:24:06.251Z,2.70
2019-02-26T03:26:36.425Z,2.60
2019-02-26T03:29:06.090Z,2.60
2019-02-26T03:31:40.589Z,2.50
2019-02-26T03:34:10.545Z,2.50
2019-02-26T03:36:40.194Z,2.50
2019-02-26T03:39:09.532Z,2.50
2019-02-26T03:41:39.218Z,2.50
2019-02-26T03:44:08.977Z,2.00
2019-02-26T03:46:38.598Z,2.10
2019-02-26T03:49:08.253Z,2.30
2019-02-26T03:51:39.734Z,2.00
2019-02-26T03:54:09.168Z,2.00
2019-02-26T03:56:38.791Z,1.80
2019-02-26T03:59:09.541Z,1.90
2019-02-26T04:01:39.774Z,1.70
2019-02-26T04:04:09.506Z,1.70
2019-02-26T04:06:41.131Z,1.80
2019-02-26T04:09:11.097Z,1.80
2019-02-26T04:11:45.584Z,1.80
2019-02-26T04:14:15.379Z,1.90
2019-02-26T04:16:44.184Z,2.00
2019-02-26T04:19:13.858Z,2.00
2019-02-26T04:22:21.014Z,2.10
2019-02-26T04:24:52.400Z,1.90
2019-02-26T04:27:47.793Z,1.90
2019-02-26T04:30:41.705Z,1.80
2019-02-26T04:33:53.031Z,1.70
2019-02-26T04:36:27.956Z,2.30
2019-02-26T04:39:34.466Z,2.10
2019-02-26T04:42:19.745Z,1.60
2019-02-26T04:45:09.033Z,1.60
2019-02-26T04:47:56.983Z,1.70
2019-02-26T04:50:28.635Z,1.80
2019-02-26T04:52:59.118Z,1.60
2019-02-26T04:55:29.283Z,1.30
2019-02-26T04:57:58.365Z,1.00
2019-02-26T05:00:30.423Z,1.30
2019-02-26T05:02:59.264Z,1.30
2019-02-26T05:05:33.678Z,1.60
2019-02-26T05:08:00.241Z,1.60
2019-02-26T05:10:31.945Z,1.60
2019-02-26T05:13:03.967Z,1.60
2019-02-26T05:15:33.254Z,1.60
2019-02-26T05:18:02.951Z,1.70
2019-02-26T05:20:34.064Z,1.60
2019-02-26T05:23:06.326Z,1.60
2019-02-26T05:25:39.257Z,1.40
2019-02-26T05:28:09.431Z,1.50
2019-02-26T05:30:40.273Z,1.40
2019-02-26T05:33:09.225Z,1.30
2019-02-26T05:35:40.787Z,1.30
2019-02-26T05:38:10.138Z,1.00
2019-02-26T05:40:42.243Z,1.20
2019-02-26T05:43:11.043Z,1.30
2019-02-26T05:45:40.845Z,1.30
2019-02-26T05:48:12.497Z,1.40
2019-02-26T05:50:44.585Z,1.20
2019-02-26T05:53:13.489Z,1.20
2019-02-26T05:55:47.044Z,1.00
2019-02-26T05:58:18.006Z,0.70
2019-02-26T06:00:45.652Z,0.70
2019-02-26T06:03:17.953Z,0.80
2019-02-26T06:05:48.942Z,0.90
2019-02-26T06:08:17.869Z,0.90
2019-02-26T06:10:47.494Z,0.80
2019-02-26T06:13:17.154Z,0.70
2019-02-26T06:15:46.859Z,0.70
2019-02-26T06:18:16.518Z,0.70
2019-02-26T06:20:46.132Z,0.90
2019-02-26T06:23:15.790Z,0.90
2019-02-26T06:25:45.425Z,0.90
2019-02-26T06:28:17.520Z,0.80
2019-02-26T06:30:46.325Z,0.90
2019-02-26T06:33:16.490Z,0.80
2019-02-26T06:35:46.280Z,0.90
2019-02-26T06:38:15.929Z,0.90
2019-02-26T06:40:47.058Z,1.00
2019-02-26T06:43:16.853Z,1.10
2019-02-26T06:45:47.806Z,1.00
2019-02-26T06:48:20.192Z,1.00
2019-02-26T06:50:48.793Z,1.00
2019-02-26T06:53:19.329Z,1.00
2019-02-26T06:55:49.735Z,1.00
2019-02-26T06:58:21.225Z,1.20
2019-02-26T07:00:54.690Z,1.20
2019-02-26T07:03:24.185Z,1.10
2019-02-26T07:05:53.400Z,1.20
2019-02-26T07:08:24.200Z,1.30
2019-02-26T07:10:54.306Z,1.30
2019-02-26T07:13:23.965Z,1.60
2019-02-26T07:15:53.721Z,1.40
2019-02-26T07:18:23.382Z,1.20
2019-02-26T07:20:55.144Z,1.30
2019-02-26T07:23:24.285Z,1.50
2019-02-26T07:25:54.001Z,1.60
2019-02-26T07:28:25.047Z,1.70
2019-02-26T07:30:54.907Z,1.80
2019-02-26T07:33:24.552Z,1.90
2019-02-26T07:35:56.581Z,2.20
2019-02-26T07:38:27.571Z,2.50
2019-02-26T07:40:59.008Z,2.90
2019-02-26T07:43:28.072Z,3.10
2019-02-26T07:45:57.698Z,3.20
2019-02-26T07:48:29.440Z,3.40
2019-02-26T07:50:58.597Z,3.60
2019-02-26T07:53:28.253Z,3.80
2019-02-26T07:55:58.791Z,3.80
2019-02-26T07:58:30.923Z,4.20
2019-02-26T08:01:00.520Z,4.60
2019-02-26T08:03:30.181Z,4.50
2019-02-26T08:06:04.082Z,4.70
2019-02-26T08:08:31.169Z,4.90
2019-02-26T08:11:00.797Z,5.10
2019-02-26T08:13:33.554Z,5.50
2019-02-26T08:16:02.562Z,6.00
2019-02-26T08:18:32.990Z,6.30
2019-02-26T08:21:04.878Z,6.30
2019-02-26T08:23:33.962Z,6.60
2019-02-26T08:26:03.633Z,7.40
2019-02-26T08:28:33.294Z,7.90
2019-02-26T08:31:02.926Z,8.10
2019-02-26T08:33:32.582Z,7.80
2019-02-26T08:36:02.205Z,7.90
2019-02-26T08:38:31.858Z,8.30
2019-02-26T08:41:01.549Z,8.50
2019-02-26T08:43:31.189Z,9.00
2019-02-26T08:46:01.001Z,9.30
2019-02-26T08:48:30.633Z,9.40
2019-02-26T08:51:03.050Z,9.80
2019-02-26T08:53:31.705Z,10.30
2019-02-26T08:56:03.849Z,10.80
2019-02-26T08:58:32.783Z,11.10
2019-02-26T09:01:02.436Z,11.20
2019-02-26T09:03:40.334Z,11.60
2019-02-26T09:06:13.160Z,11.80
2019-02-26T09:08:35.544Z,11.80
2019-02-26T09:11:08.073Z,11.90
2019-02-26T09:13:38.860Z,12.10
2019-02-26T09:16:08.530Z,12.50
2019-02-26T09:18:40.449Z,12.70
2019-02-26T09:21:10.175Z,13.00
2019-02-26T09:23:40.693Z,13.00
2019-02-26T09:26:10.361Z,13.20
2019-02-26T09:28:40.007Z,13.20
2019-02-26T09:31:11.677Z,13.30
2019-02-26T09:33:42.769Z,13.50
2019-02-26T09:36:14.966Z,13.70
2019-02-26T09:38:44.292Z,13.80
2019-02-26T09:41:16.530Z,14.00
2019-02-26T09:43:48.031Z,14.50
2019-02-26T09:46:19.045Z,14.10
2019-02-26T09:48:48.551Z,14.30
2019-02-26T09:51:18.221Z,14.70
2019-02-26T09:53:50.100Z,17.10
2019-02-26T09:56:19.152Z,19.90
2019-02-26T09:58:50.696Z,21.40
2019-02-26T10:01:20.070Z,22.20
2019-02-26T10:03:49.708Z,22.40
2019-02-26T10:06:21.638Z,22.00
2019-02-26T10:08:52.823Z,19.00
2019-02-26T10:11:23.099Z,18.40
2019-02-26T10:13:53.282Z,18.30
2019-02-26T10:16:23.900Z,17.90
2019-02-26T10:18:56.590Z,17.40
2019-02-26T10:21:25.650Z,17.20
2019-02-26T10:23:56.805Z,18.10
2019-02-26T10:26:30.498Z,18.50
2019-02-26T10:29:03.730Z,18.60
2019-02-26T10:31:29.093Z,18.40
2019-02-26T10:33:58.731Z,18.70
2019-02-26T10:36:30.568Z,18.60
2019-02-26T10:39:02.275Z,18.40
2019-02-26T10:41:30.965Z,18.20
2019-02-26T10:44:00.598Z,18.50
2019-02-26T10:46:32.156Z,19.00
2019-02-26T10:49:01.596Z,19.40
2019-02-26T10:51:31.254Z,19.40
2019-02-26T10:54:02.795Z,18.60
2019-02-26T10:56:36.814Z,19.10
2019-02-26T10:59:06.087Z,19.50
2019-02-26T11:01:35.436Z,20.00
2019-02-26T11:04:05.299Z,19.40
2019-02-26T11:06:38.301Z,18.80
2019-02-26T11:09:09.413Z,18.70
2019-02-26T11:11:39.956Z,19.60
2019-02-26T11:14:13.001Z,19.70
2019-02-26T11:16:41.646Z,19.10
2019-02-26T11:19:12.379Z,18.80
2019-02-26T11:21:42.145Z,19.40
2019-02-26T11:24:11.791Z,19.40
2019-02-26T11:26:43.726Z,19.20
2019-02-26T11:29:12.721Z,19.60
2019-02-26T11:31:44.583Z,20.20
2019-02-26T11:34:13.618Z,20.20
2019-02-26T11:36:43.379Z,20.90
2019-02-26T11:39:13.018Z,20.50
2019-02-26T11:41:42.686Z,20.70
2019-02-26T11:44:14.726Z,21.10
2019-02-26T11:46:45.852Z,21.20
2019-02-26T11:49:16.882Z,21.00
2019-02-26T11:51:46.164Z,21.60
2019-02-26T11:54:17.660Z,21.40
2019-02-26T11:56:47.831Z,21.20
2019-02-26T11:59:19.481Z,21.20
2019-02-26T12:01:49.293Z,21.20
2019-02-26T12:04:18.926Z,21.70
2019-02-26T12:06:48.710Z,22.70
2019-02-26T12:09:18.345Z,22.30
2019-02-26T12:11:48.010Z,22.30
2019-02-26T12:14:19.494Z,22.30
2019-02-26T12:16:49.186Z,22.50
2019-02-26T12:19:18.823Z,22.70
2019-02-26T12:21:49.491Z,23.10
2019-02-26T12:24:19.730Z,22.80
2019-02-26T12:26:49.955Z,22.40
2019-02-26T12:29:21.566Z,23.50
2019-02-26T12:31:53.800Z,23.90
2019-02-26T12:34:24.728Z,23.60
2019-02-26T12:36:57.175Z,23.60
2019-02-26T12:39:27.930Z,23.60
2019-02-26T12:41:56.972Z,24.10
2019-02-26T12:44:29.089Z,23.80
2019-02-26T12:47:00.398Z,23.50
2019-02-26T12:49:29.489Z,24.80
2019-02-26T12:52:03.356Z,25.00
2019-02-26T12:54:33.503Z,25.20
2019-02-26T12:57:04.195Z,24.90
2019-02-26T12:59:34.030Z,24.90
2019-02-26T13:02:05.435Z,25.10
2019-02-26T13:04:37.794Z,24.80
2019-02-26T13:07:08.608Z,25.40
2019-02-26T13:09:41.438Z,24.80
2019-02-26T13:12:08.936Z,26.10
2019-02-26T13:14:38.557Z,26.80
2019-02-26T13:17:08.346Z,27.00
2019-02-26T13:19:38.032Z,27.90
2019-02-26T13:22:11.944Z,26.60
2019-02-26T13:24:39.208Z,28.40
2019-02-26T13:27:09.034Z,29.00
2019-02-26T13:29:42.503Z,29.50
2019-02-26T13:32:32.296Z,29.80
2019-02-26T13:35:05.434Z,30.40
2019-02-26T13:37:35.561Z,30.50
2019-02-26T13:40:05.508Z,28.30
2019-02-26T13:42:35.871Z,29.80
2019-02-26T13:45:08.896Z,27.90
2019-02-26T13:47:38.849Z,25.20
2019-02-26T13:50:16.102Z,24.30
2019-02-26T13:52:45.753Z,23.60
2019-02-26T13:55:15.462Z,23.50
2019-02-26T13:57:45.162Z,23.00
2019-02-26T14:00:19.841Z,23.00
2019-02-26T14:02:47.425Z,22.40
2019-02-26T14:05:17.122Z,21.00
2019-02-26T14:07:47.349Z,21.10
2019-02-26T14:10:19.085Z,20.80
2019-02-26T14:12:48.908Z,20.80
2019-02-26T14:15:31.452Z,20.50
2019-02-26T14:18:01.394Z,20.30
2019-02-26T14:20:31.028Z,20.30
2019-02-26T14:23:00.674Z,19.60
2019-02-26T14:25:30.297Z,19.60
2019-02-26T14:28:00.148Z,19.20
2019-02-26T14:30:29.773Z,19.00
2019-02-26T14:32:59.485Z,19.00
2019-02-26T14:35:29.125Z,19.00
2019-02-26T14:37:59.790Z,18.90
2019-02-26T14:40:29.413Z,18.80
2019-02-26T14:42:59.066Z,18.70
2019-02-26T14:45:28.694Z,18.40
2019-02-26T14:47:58.349Z,18.20
2019-02-26T14:50:28.288Z,17.80
2019-02-26T14:52:57.941Z,17.60
2019-02-26T14:55:27.573Z,17.70
2019-02-26T14:57:57.361Z,17.60
2019-02-26T15:00:36.327Z,17.50
2019-02-26T15:03:06.309Z,17.40
2019-02-26T15:05:36.405Z,17.20
2019-02-26T15:08:06.210Z,17.10
2019-02-26T15:10:35.846Z,16.90
2019-02-26T15:13:05.512Z,16.70
2019-02-26T15:15:35.149Z,16.50
2019-02-26T15:18:04.801Z,16.40
2019-02-26T15:20:34.442Z,16.30
2019-02-26T15:23:04.765Z,16.20
2019-02-26T15:25:34.466Z,16.00
2019-02-26T15:28:05.484Z,15.80
2019-02-26T15:30:35.281Z,15.70
2019-02-26T15:33:11.051Z,15.60
2019-02-26T15:35:36.253Z,15.30
2019-02-26T15:38:06.055Z,15.10
2019-02-26T15:40:35.697Z,15.00
2019-02-26T15:43:05.365Z,14.80
2019-02-26T15:45:35.300Z,14.80
2019-02-26T15:48:04.970Z,14.70
2019-02-26T15:50:34.629Z,14.60
2019-02-26T15:53:04.546Z,14.50
2019-02-26T15:55:34.214Z,14.50
2019-02-26T15:58:06.165Z,14.50
2019-02-26T16:00:37.668Z,14.30
2019-02-26T16:03:06.688Z,14.20
2019-02-26T16:05:38.959Z,14.10
2019-02-26T16:08:08.897Z,14.00
2019-02-26T16:10:38.557Z,13.80
2019-02-26T16:13:08.278Z,13.80
2019-02-26T16:15:40.884Z,13.80
2019-02-26T16:18:10.570Z,13.70
2019-02-26T16:20:40.234Z,13.70
2019-02-26T16:23:09.869Z,13.60
2019-02-26T16:25:39.534Z,13.50
2019-02-26T16:28:09.253Z,13.40
2019-02-26T16:30:39.346Z,13.30
2019-02-26T16:33:11.232Z,13.30
2019-02-26T16:35:40.265Z,13.10
2019-02-26T16:38:11.696Z,12.60
2019-02-26T16:40:41.310Z,12.60
2019-02-26T16:43:11.012Z,12.50
2019-02-26T16:45:40.673Z,12.50
2019-02-26T16:48:10.405Z,12.50
2019-02-26T16:50:40.065Z,12.40
2019-02-26T16:53:09.703Z,11.60
2019-02-26T16:55:39.426Z,11.40
2019-02-26T16:58:09.053Z,11.20
2019-02-26T17:00:38.705Z,10.80
2019-02-26T17:03:08.409Z,10.70
2019-02-26T17:05:38.066Z,10.70
2019-02-26T17:08:08.008Z,10.30
2019-02-26T17:10:37.735Z,10.20
2019-02-26T17:13:07.425Z,9.60
2019-02-26T17:15:37.728Z,9.60
2019-02-26T17:18:09.787Z,9.80
2019-02-26T17:20:39.015Z,10.00
2019-02-26T17:23:08.653Z,10.10
2019-02-26T17:25:38.301Z,9.80
2019-02-26T17:28:09.474Z,9.80
2019-02-26T17:30:39.290Z,9.70
2019-02-26T17:33:11.348Z,9.10
2019-02-26T17:35:40.185Z,9.30
2019-02-26T17:38:10.131Z,9.10
2019-02-26T17:40:39.771Z,8.90
2019-02-26T17:43:09.393Z,8.60
2019-02-26T17:45:39.046Z,8.30
2019-02-26T17:48:08.736Z,8.50
2019-02-26T17:50:39.828Z,8.70
2019-02-26T17:53:09.745Z,8.60
2019-02-26T17:55:39.394Z,8.10
2019-02-26T17:58:10.650Z,8.20
2019-02-26T18:00:42.093Z,8.00
2019-02-26T18:03:11.726Z,8.10
2019-02-26T18:05:50.921Z,8.30
2019-02-26T18:08:16.753Z,7.90
2019-02-26T18:10:44.101Z,7.60
2019-02-26T18:13:14.150Z,7.80
2019-02-26T18:15:43.787Z,7.80
2019-02-26T18:18:13.489Z,7.60
2019-02-26T18:20:43.121Z,7.80
2019-02-26T18:23:12.805Z,7.80
2019-02-26T18:25:42.452Z,7.60
2019-02-26T18:28:12.069Z,7.50
2019-02-26T18:30:41.729Z,6.90
2019-02-26T18:33:12.069Z,6.80
2019-02-26T18:35:42.170Z,7.00
2019-02-26T18:38:11.858Z,7.20
2019-02-26T18:40:41.491Z,7.10
2019-02-26T18:43:11.674Z,7.00
2019-02-26T18:45:42.948Z,6.30
2019-02-26T18:48:15.030Z,6.30
2019-02-26T18:50:44.276Z,6.60
2019-02-26T18:53:14.608Z,6.90
2019-02-26T18:55:44.453Z,6.90
2019-02-26T18:58:16.504Z,6.70
2019-02-26T19:00:45.565Z,6.00
2019-02-26T19:03:15.186Z,6.30
2019-02-26T19:05:44.906Z,6.50
2019-02-26T19:08:14.655Z,6.30
2019-02-26T19:10:44.299Z,6.30
2019-02-26T19:13:13.938Z,5.70
2019-02-26T19:15:47.413Z,5.50
2019-02-26T19:18:15.198Z,5.50
2019-02-26T19:20:48.920Z,5.60
2019-02-26T19:23:16.166Z,5.30
2019-02-26T19:25:45.806Z,5.60
2019-02-26T19:28:15.615Z,5.80
2019-02-26T19:30:45.288Z,5.70
2019-02-26T19:33:15.098Z,5.70
2019-02-26T19:35:44.947Z,5.80
2019-02-26T19:38:14.719Z,5.60
2019-02-26T19:40:56.485Z,5.50
2019-02-26T19:43:26.601Z,5.50
2019-02-26T19:45:57.073Z,5.60
2019-02-26T19:48:30.425Z,5.50
2019-02-26T19:50:58.069Z,5.50
2019-02-26T19:53:27.749Z,5.60
2019-02-26T19:55:57.405Z,5.60
2019-02-26T19:58:27.289Z,5.40
2019-02-26T20:00:57.033Z,5.20
2019-02-26T20:03:26.925Z,5.00
2019-02-26T20:05:56.562Z,5.10
2019-02-26T20:08:26.214Z,5.20
2019-02-26T20:11:15.202Z,5.20
2019-02-26T20:13:44.830Z,4.90
2019-02-26T20:16:14.477Z,4.80
2019-02-26T20:18:44.219Z,5.00
2019-02-26T20:21:13.879Z,5.10
2019-02-26T20:23:43.519Z,5.30
2019-02-26T20:26:16.003Z,5.10
2019-02-26T20:28:44.448Z,5.10
2019-02-26T20:31:14.087Z,5.20
2019-02-26T20:33:43.739Z,5.20
2019-02-26T20:36:15.731Z,5.30
2019-02-26T20:38:44.793Z,5.20
2019-02-26T20:41:14.493Z,5.10
2019-02-26T20:43:44.146Z,5.10
2019-02-26T20:46:13.769Z,5.10
2019-02-26T20:48:43.434Z,4.90
2019-02-26T20:51:13.082Z,4.60
2019-02-26T20:53:42.741Z,4.50
2019-02-26T20:56:12.454Z,4.70
2019-02-26T20:58:44.672Z,4.80
2019-02-26T21:01:13.430Z,4.40
2019-02-26T21:03:43.095Z,4.20
2019-02-26T21:06:12.718Z,4.40
2019-02-26T21:08:42.529Z,4.40
2019-02-26T21:11:12.167Z,4.40
2019-02-26T21:13:41.834Z,4.50
2019-02-26T21:16:11.618Z,4.50
2019-02-26T21:18:41.338Z,4.40
2019-02-26T21:21:11.709Z,4.00
2019-02-26T21:23:42.245Z,4.20
2019-02-26T21:26:11.866Z,4.20
2019-02-26T21:28:41.650Z,4.30
2019-02-26T21:31:11.279Z,4.30
2019-02-26T21:33:40.923Z,4.20
2019-02-26T21:36:10.662Z,4.00
2019-02-26T21:38:40.497Z,4.00
2019-02-26T21:41:10.121Z,4.10
2019-02-26T21:43:39.773Z,4.20
2019-02-26T21:46:09.409Z,4.10
2019-02-26T21:48:39.105Z,3.70
2019-02-26T21:51:08.725Z,3.70
2019-02-26T21:53:39.859Z,3.80
2019-02-26T21:56:09.605Z,3.70
2019-02-26T21:58:39.410Z,3.70
2019-02-26T22:01:11.449Z,3.30
2019-02-26T22:03:40.578Z,3.30
2019-02-26T22:06:11.001Z,3.30
2019-02-26T22:08:41.214Z,3.00
2019-02-26T22:11:10.837Z,3.40
2019-02-26T22:13:40.526Z,3.40
2019-02-26T22:16:10.147Z,3.20
2019-02-26T22:18:39.802Z,3.30
2019-02-26T22:21:09.423Z,3.30
2019-02-26T22:23:39.074Z,3.40
2019-02-26T22:26:08.941Z,3.50
2019-02-26T22:28:39.710Z,3.50
2019-02-26T22:31:09.876Z,3.50
2019-02-26T22:33:40.728Z,3.40
2019-02-26T22:36:10.774Z,3.60
2019-02-26T22:38:40.502Z,3.60
2019-02-26T22:41:10.127Z,3.50
2019-02-26T22:43:39.779Z,3.20
2019-02-26T22:46:09.406Z,3.00
2019-02-26T22:48:39.221Z,3.30
2019-02-26T22:51:08.853Z,3.30
2019-02-26T22:53:38.514Z,3.20
2019-02-26T22:56:09.058Z,3.10
2019-02-26T22:58:38.810Z,3.10
2019-02-26T23:01:17.477Z,3.20
2019-02-26T23:03:47.239Z,3.20
2019-02-26T23:06:16.861Z,3.10
2019-02-26T23:08:46.620Z,3.10
2019-02-26T23:11:16.880Z,2.90
2019-02-26T23:13:46.758Z,3.00
2019-02-26T23:16:18.571Z,3.00
2019-02-26T23:18:48.338Z,2.70
2019-02-26T23:21:18.504Z,2.90
2019-02-26T23:23:48.489Z,2.90
2019-02-26T23:26:18.386Z,2.80
2019-02-26T23:28:48.278Z,2.80
2019-02-26T23:31:18.677Z,2.60
2019-02-26T23:33:49.036Z,2.60
2019-02-26T23:36:18.959Z,2.60
2019-02-26T23:38:48.824Z,2.50
2019-02-26T23:41:18.608Z,2.60
2019-02-26T23:43:48.311Z,2.60
2019-02-26T23:46:17.957Z,2.60
2019-02-26T23:48:47.596Z,2.60
2019-02-26T23:51:20.055Z,2.70
2019-02-26T23:53:48.496Z,2.80
2019-02-26T23:56:19.154Z,2.50
2019-02-26T23:58:49.476Z,2.10
